Bullhead City, AZ

7:23 AM MST on October 22, 2017 (GMT -0700)
Laughlin-Bullhead International

Weather History for KIFP - March, 2012

Change the Weather History Date:

Saturday, March 17, 2012

  Actual Average Record
Temperature  
Mean Temperature 68 °F -  
Max Temperature 73 °F 78 °F 98 °F (2007)
Min Temperature 64 °F 54 °F 36 °F (1991)
Cooling Degree Days 4    
Growing Degree Days 18 (Base 50)    
Moisture  
Dew Point 36 °F    
Average Humidity 32    
Maximum Humidity 35    
Minimum Humidity 25    
Precipitation  
Precipitation 0.00 in - - ()
Sea Level Pressure  
Sea Level Pressure 29.65 in    
Wind  
Wind Speed 17 mph (South)    
Max Wind Speed 37 mph    
Max Gust Speed 46 mph    
Visibility 10 miles    
Events Rain    
Averages and records for this station are not official NWS values.
T = Trace of Precipitation, MM = Missing Value Source: NWS Daily Summary

Daily Weather History Graph

Daily Weather History Graph

Search for Another Location

Airport or City:

Trip Planner

Search our weather history database for the weather conditions in past years. The results will help you decide how hot, cold, wet, or windy it might be!

Date:

Astronomy

Mar. 17, 2012 Rise Set
Actual Time 6:45 AM MST 6:47 PM MST
Civil Twilight 6:20 AM MST 7:13 PM MST
Nautical Twilight 5:50 AM MST 7:42 PM MST
Astronomical Twilight 5:20 AM MST 8:12 PM MST
Moon 3:39 AM MST (3/17) 2:25 PM MST (3/17)
Length of Visible Light 12h 53m
Length of Day
12h 02m
Waning Crescent, 22% of the Moon is Illuminated
Mar 17
Waning Crescent
Mar 22
New
Mar 30
First Quarter
Apr 6
Full
Apr 13
Last Quarter

Hourly Weather History & Observations

Time (MST) Temp. Dew Point Humidity Pressure Visibility Wind Dir Wind Speed Gust Speed Precip Events Conditions
12:15 AM 73.4 °F 37.4 °F 27% 29.70 in 10.0 mi SSE 17.3 mph - N/A   Clear
12:35 AM 69.8 °F 39.2 °F 33% 29.70 in 10.0 mi SSW 8.1 mph - N/A   Clear
12:55 AM 68.0 °F 39.2 °F 35% 29.71 in 10.0 mi SW 6.9 mph - N/A   Clear
1:15 AM 68.0 °F 39.2 °F 35% 29.71 in 10.0 mi South 8.1 mph - N/A   Clear
1:35 AM 68.0 °F 39.2 °F 35% 29.71 in 10.0 mi SSW 8.1 mph - N/A   Clear
1:55 AM 68.0 °F 39.2 °F 35% 29.70 in 10.0 mi South 10.4 mph - N/A   Clear
2:15 AM 68.0 °F 37.4 °F 33% 29.70 in 10.0 mi South 5.8 mph - N/A   Clear
2:35 AM 66.2 °F 37.4 °F 35% 29.69 in 10.0 mi South 11.5 mph 17.3 mph N/A   Clear
2:55 AM 71.6 °F 33.8 °F 25% 29.67 in 10.0 mi SSE 18.4 mph 24.2 mph N/A   Clear
3:15 AM 69.8 °F 33.8 °F 27% 29.66 in 10.0 mi SSE 21.9 mph 26.5 mph N/A   Clear
3:35 AM 69.8 °F 33.8 °F 27% 29.65 in 10.0 mi SSE 19.6 mph - N/A   Clear
3:55 AM 68.0 °F 37.4 °F 33% 29.66 in 10.0 mi SW 13.8 mph - N/A   Clear
4:15 AM 66.2 °F 37.4 °F 35% 29.67 in 10.0 mi SSW 9.2 mph - N/A   Clear
4:35 AM 66.2 °F 37.4 °F 35% 29.66 in 10.0 mi SSW 11.5 mph - N/A   Clear
4:55 AM 66.2 °F 37.4 °F 35% 29.67 in 10.0 mi South 9.2 mph - N/A   Clear
5:15 AM 66.2 °F 35.6 °F 32% 29.66 in 10.0 mi South 8.1 mph - N/A   Clear
5:35 AM 66.2 °F 33.8 °F 30% 29.66 in 10.0 mi SSW 13.8 mph 18.4 mph N/A   Clear
5:55 AM 66.2 °F 35.6 °F 32% 29.67 in 10.0 mi South 10.4 mph - N/A   Clear
6:15 AM 64.4 °F 35.6 °F 34% 29.67 in 10.0 mi South 8.1 mph - N/A   Clear
6:35 AM 66.2 °F 33.8 °F 30% 29.67 in 10.0 mi SSW 6.9 mph - N/A   Clear
6:55 AM 64.4 °F 35.6 °F 34% 29.66 in 10.0 mi South 6.9 mph - N/A   Clear
7:15 AM 64.4 °F 35.6 °F 34% 29.67 in 10.0 mi SSW 12.7 mph - N/A   Clear
7:35 AM 64.4 °F 35.6 °F 34% 29.67 in 10.0 mi SSW 12.7 mph 18.4 mph N/A   Clear
7:55 AM 64.4 °F 35.6 °F 34% 29.68 in 10.0 mi SSW 11.5 mph 17.3 mph N/A   Clear
8:15 AM 66.2 °F 33.8 °F 30% 29.69 in 10.0 mi SSW 11.5 mph - N/A   Clear
8:35 AM 66.2 °F 32.0 °F 28% 29.67 in 10.0 mi South 23.0 mph - N/A   Clear
8:55 AM 66.2 °F 32.0 °F 28% 29.68 in 10.0 mi South 20.7 mph 26.5 mph N/A   Clear
9:15 AM 68.0 °F 32.0 °F 26% 29.67 in 10.0 mi South 21.9 mph 35.7 mph N/A   Clear
9:35 AM 68.0 °F 32.0 °F 26% 29.65 in 10.0 mi South 27.6 mph 32.2 mph N/A   Clear
9:55 AM 68.0 °F 32.0 °F 26% 29.65 in 10.0 mi South 27.6 mph 35.7 mph N/A   Clear
10:15 AM 68.0 °F 33.8 °F 28% 29.66 in 10.0 mi South 27.6 mph 35.7 mph N/A   Clear
10:35 AM 68.0 °F 33.8 °F 28% 29.66 in 10.0 mi South 24.2 mph 32.2 mph N/A   Clear
10:55 AM 68.0 °F 32.0 °F 26% 29.64 in 10.0 mi South 26.5 mph 39.1 mph N/A   Clear
11:15 AM 68.0 °F 32.0 °F 26% 29.64 in 10.0 mi South 23.0 mph 35.7 mph N/A   Clear
11:35 AM 68.0 °F 33.8 °F 28% 29.64 in 10.0 mi South 29.9 mph 40.3 mph N/A   Clear
11:55 AM 68.0 °F 33.8 °F 28% 29.64 in 10.0 mi South 21.9 mph 35.7 mph N/A   Partly Cloudy
12:15 PM 68.0 °F 33.8 °F 28% 29.63 in 10.0 mi SSE 29.9 mph 35.7 mph N/A   Clear
12:35 PM 68.0 °F 35.6 °F 30% 29.64 in 10.0 mi SSE 27.6 mph 34.5 mph N/A   Clear
12:55 PM 68.0 °F 35.6 °F 30% 29.63 in 10.0 mi SSE 29.9 mph 36.8 mph N/A   Clear
1:15 PM 68.0 °F 37.4 °F 33% 29.64 in 10.0 mi SSE 27.6 mph 34.5 mph N/A   Clear
1:35 PM 68.0 °F 37.4 °F 33% 29.62 in 9.0 mi SSE 34.5 mph 42.6 mph N/A   Partly Cloudy
1:55 PM 68.0 °F 37.4 °F 33% 29.62 in 8.0 mi SSE 36.8 mph 46.0 mph N/A Rain Light Rain
2:15 PM 68.0 °F 37.4 °F 33% 29.63 in 10.0 mi SSE 29.9 mph 38.0 mph N/A   Clear
2:35 PM 66.2 °F 37.4 °F 35% 29.62 in 10.0 mi SSE 29.9 mph 36.8 mph N/A   Scattered Clouds
2:55 PM 66.2 °F 37.4 °F 35% 29.61 in 10.0 mi South 27.6 mph 36.8 mph N/A   Mostly Cloudy
3:15 PM 66.2 °F 37.4 °F 35% 29.59 in 10.0 mi SSE 35.7 mph 42.6 mph N/A   Mostly Cloudy
3:35 PM 66.2 °F 37.4 °F 35% 29.59 in 10.0 mi SSE 31.1 mph 41.4 mph N/A   Mostly Cloudy
3:55 PM 66.2 °F 37.4 °F 35% 29.58 in 10.0 mi SSE 32.2 mph 36.8 mph N/A   Mostly Cloudy
4:15 PM 66.2 °F 37.4 °F 35% 29.57 in 10.0 mi SSE 32.2 mph 36.8 mph N/A   Mostly Cloudy
4:35 PM 66.2 °F 37.4 °F 35% 29.55 in 10.0 mi SSE 29.9 mph 35.7 mph N/A   Mostly Cloudy
4:55 PM 66.2 °F 37.4 °F 35% 29.54 in 10.0 mi SSE 26.5 mph 32.2 mph N/A   Overcast
5:15 PM 66.2 °F 37.4 °F 35% 29.52 in 10.0 mi SSE 29.9 mph 35.7 mph N/A   Overcast
5:35 PM 68.0 °F 37.4 °F 33% 29.50 in 10.0 mi SSE 36.8 mph 43.7 mph N/A   Mostly Cloudy
5:55 PM 60.8 °F 50.0 °F 68% 29.60 in 3.0 mi SW 19.6 mph 31.1 mph 0.01 in Rain Light Rain
6:15 PM 57.2 °F 51.8 °F 82% 29.61 in 2.5 mi South 16.1 mph 27.6 mph 0.04 in Rain Light Rain
6:35 PM 57.2 °F 51.8 °F 82% 29.60 in 9.0 mi South 15.0 mph - 0.04 in Rain Light Rain
6:55 PM 59.0 °F 48.2 °F 67% 29.59 in 10.0 mi South 19.6 mph 29.9 mph 0.04 in   Mostly Cloudy
7:15 PM 59.0 °F 46.4 °F 63% 29.59 in 10.0 mi South 20.7 mph 32.2 mph N/A   Scattered Clouds
7:35 PM 59.0 °F 46.4 °F 63% 29.58 in 10.0 mi SSE 23.0 mph 28.8 mph N/A   Mostly Cloudy
7:55 PM 57.2 °F 48.2 °F 72% 29.58 in 10.0 mi SSE 20.7 mph 25.3 mph N/A   Mostly Cloudy
8:15 PM 57.2 °F 48.2 °F 72% 29.59 in 7.0 mi SSE 19.6 mph - 0.01 in Rain Light Rain
8:35 PM 57.2 °F 48.2 °F 72% 29.58 in 10.0 mi SSE 17.3 mph 24.2 mph 0.01 in   Mostly Cloudy
8:55 PM 57.2 °F 46.4 °F 67% 29.57 in 10.0 mi SE 24.2 mph 28.8 mph 0.01 in   Scattered Clouds
9:15 PM 57.2 °F 46.4 °F 67% 29.55 in 10.0 mi SE 27.6 mph 33.4 mph N/A   Partly Cloudy
9:35 PM 57.2 °F 46.4 °F 67% 29.55 in 10.0 mi SSE 31.1 mph 35.7 mph N/A   Clear
9:55 PM 57.2 °F 46.4 °F 67% 29.54 in 9.0 mi SE 28.8 mph 38.0 mph N/A   Scattered Clouds
10:15 PM 55.4 °F 46.4 °F 72% 29.54 in 10.0 mi SSE 32.2 mph 38.0 mph N/A   Overcast
10:35 PM 55.4 °F 46.4 °F 72% 29.59 in 5.0 mi SSW 15.0 mph 19.6 mph 0.03 in Rain Light Rain
10:55 PM 53.6 °F 41.0 °F 62% 29.59 in 6.0 mi South 15.0 mph - 0.04 in   Haze
11:15 PM 53.6 °F 42.8 °F 67% 29.59 in 10.0 mi SSE 19.6 mph - N/A   Overcast
11:35 PM 53.6 °F 46.4 °F 77% 29.59 in 10.0 mi SSE 21.9 mph - 0.01 in   Overcast
11:55 PM 53.6 °F 44.6 °F 72% 29.59 in 10.0 mi SSE 20.7 mph - 0.01 in   Overcast